Time,TemperatureF,DewpointF,PressureIn,WindDirection,WindDirectionDegrees,WindSpeedMPH,WindSpeedGustMPH,Humidity,HourlyPrecipIn,Conditions,Clouds,dailyrainin,SoftwareType,DateUTC
2013-04-22 00:01:00,39.2,31.9,30.57,ENE,57,0.0,1.0,75,0.00,,,0.00,Wunderground v.1.15,2013-04-22 04:01:00,
2013-04-22 00:03:00,39.2,32.3,30.57,ENE,57,0.0,1.0,76,0.00,,,0.00,Wunderground v.1.15,2013-04-22 04:03:00,
2013-04-22 00:04:00,39.2,32.6,30.57,ENE,57,0.0,1.0,77,0.00,,,0.00,Wunderground v.1.15,2013-04-22 04:04:00,
2013-04-22 00:05:00,39.1,32.5,30.56,ENE,57,0.0,1.0,77,0.00,,,0.00,Wunderground v.1.15,2013-04-22 04:05:00,
2013-04-22 00:10:00,39.1,32.8,30.56,ENE,57,2.0,2.0,78,0.00,,,0.00,Wunderground v.1.15,2013-04-22 04:10:00,
2013-04-22 00:13:00,39.0,32.7,30.57,ENE,57,0.0,2.0,78,0.00,,,0.00,Wunderground v.1.15,2013-04-22 04:13:00,
2013-04-22 00:19:00,38.9,32.9,30.57,ENE,57,0.0,2.0,79,0.00,,,0.00,Wunderground v.1.15,2013-04-22 04:19:00,
2013-04-22 00:24:00,38.7,32.7,30.56,ENE,57,1.0,1.0,79,0.00,,,0.00,Wunderground v.1.15,2013-04-22 04:24:00,
2013-04-22 00:30:00,38.6,32.6,30.56,ENE,57,1.0,1.0,79,0.00,,,0.00,Wunderground v.1.15,2013-04-22 04:30:00,
2013-04-22 00:36:00,38.3,32.4,30.56,ENE,57,1.0,2.0,79,0.00,,,0.00,Wunderground v.1.15,2013-04-22 04:36:00,
2013-04-22 00:41:00,38.1,31.8,30.56,ENE,57,1.0,1.0,78,0.00,,,0.00,Wunderground v.1.15,2013-04-22 04:41:00,
2013-04-22 00:46:00,38.0,31.7,30.56,ENE,57,2.0,2.0,78,0.00,,,0.00,Wunderground v.1.15,2013-04-22 04:46:00,
2013-04-22 00:51:00,37.9,32.0,30.56,ENE,57,0.0,1.0,79,0.00,,,0.00,Wunderground v.1.15,2013-04-22 04:51:00,
2013-04-22 00:57:00,37.9,31.7,30.56,ENE,57,3.0,4.0,78,0.00,,,0.00,Wunderground v.1.15,2013-04-22 04:57:00,
2013-04-22 01:03:00,38.7,31.5,30.56,ENE,58,2.0,3.0,75,0.00,,,0.00,Wunderground v.1.15,2013-04-22 05:03:00,
2013-04-22 01:08:00,39.4,31.8,30.56,ENE,58,0.0,3.0,74,0.00,,,0.00,Wunderground v.1.15,2013-04-22 05:08:00,
2013-04-22 01:13:00,39.6,32.0,30.56,ENE,58,1.0,1.0,74,0.00,,,0.00,Wunderground v.1.15,2013-04-22 05:13:00,
2013-04-22 01:19:00,39.5,32.2,30.56,ENE,58,0.0,1.0,75,0.00,,,0.00,Wunderground v.1.15,2013-04-22 05:19:00,
2013-04-22 01:25:00,39.2,31.9,30.56,ENE,58,0.0,2.0,75,0.00,,,0.00,Wunderground v.1.15,2013-04-22 05:25:00,
2013-04-22 01:30:00,38.9,31.6,30.56,ENE,58,1.0,1.0,75,0.00,,,0.00,Wunderground v.1.15,2013-04-22 05:30:00,
2013-04-22 01:35:00,38.9,31.6,30.56,ENE,58,0.0,2.0,75,0.00,,,0.00,Wunderground v.1.15,2013-04-22 05:35:00,
2013-04-22 01:41:00,38.8,31.9,30.55,ENE,58,0.0,2.0,76,0.00,,,0.00,Wunderground v.1.15,2013-04-22 05:41:00,
2013-04-22 01:46:00,38.7,32.1,30.55,ENE,58,1.0,2.0,77,0.00,,,0.00,Wunderground v.1.15,2013-04-22 05:46:00,
2013-04-22 01:52:00,38.4,31.5,30.55,ENE,66,5.0,5.0,76,0.00,,,0.00,Wunderground v.1.15,2013-04-22 05:52:00,
2013-04-22 01:57:00,38.8,31.9,30.55,ENE,67,0.0,5.0,76,0.00,,,0.00,Wunderground v.1.15,2013-04-22 05:57:00,
2013-04-22 02:02:00,39.1,31.8,30.55,ENE,67,2.0,4.0,75,0.00,,,0.00,Wunderground v.1.15,2013-04-22 06:02:00,
2013-04-22 02:07:00,39.5,32.6,30.54,ENE,67,0.0,4.0,76,0.00,,,0.00,Wunderground v.1.15,2013-04-22 06:07:00,
2013-04-22 02:12:00,39.5,32.6,30.54,ENE,67,0.0,3.0,76,0.00,,,0.00,Wunderground v.1.15,2013-04-22 06:12:00,
2013-04-22 02:17:00,39.5,32.9,30.55,ENE,67,1.0,4.0,77,0.00,,,0.00,Wunderground v.1.15,2013-04-22 06:17:00,
2013-04-22 02:22:00,39.5,32.6,30.55,ENE,67,3.0,4.0,76,0.00,,,0.00,Wunderground v.1.15,2013-04-22 06:22:00,
2013-04-22 02:27:00,39.7,32.8,30.55,ENE,67,3.0,6.0,76,0.00,,,0.00,Wunderground v.1.15,2013-04-22 06:27:00,
2013-04-22 02:32:00,40.0,33.0,30.55,ENE,70,4.0,6.0,76,0.00,,,0.00,Wunderground v.1.15,2013-04-22 06:32:00,
2013-04-22 02:37:00,40.0,33.4,30.55,ENE,71,0.0,6.0,77,0.00,,,0.00,Wunderground v.1.15,2013-04-22 06:37:00,
2013-04-22 02:42:00,40.0,33.4,30.55,ENE,72,1.0,4.0,77,0.00,,,0.00,Wunderground v.1.15,2013-04-22 06:42:00,
2013-04-22 02:47:00,40.1,33.5,30.55,ENE,70,1.0,6.0,77,0.00,,,0.00,Wunderground v.1.15,2013-04-22 06:47:00,
2013-04-22 02:52:00,40.1,33.8,30.55,ENE,71,3.0,4.0,78,0.00,,,0.00,Wunderground v.1.15,2013-04-22 06:52:00,
2013-04-22 02:57:00,40.0,33.7,30.55,ENE,71,2.0,5.0,78,0.00,,,0.00,Wunderground v.1.15,2013-04-22 06:57:00,
2013-04-22 03:02:00,40.0,33.7,30.55,ENE,71,2.0,11.0,78,0.00,,,0.00,Wunderground v.1.15,2013-04-22 07:02:00,
2013-04-22 03:07:00,40.1,33.8,30.55,ENE,72,0.0,11.0,78,0.00,,,0.00,Wunderground v.1.15,2013-04-22 07:07:00,
2013-04-22 03:12:00,40.0,33.7,30.55,ENE,78,2.0,5.0,78,0.00,,,0.00,Wunderground v.1.15,2013-04-22 07:12:00,
2013-04-22 03:17:00,39.9,33.6,30.55,East,81,1.0,8.0,78,0.00,,,0.00,Wunderground v.1.15,2013-04-22 07:17:00,
2013-04-22 03:22:00,39.9,33.6,30.55,East,81,3.0,6.0,78,0.00,,,0.00,Wunderground v.1.15,2013-04-22 07:22:00,
2013-04-22 03:27:00,39.8,33.8,30.55,East,82,3.0,7.0,79,0.00,,,0.00,Wunderground v.1.15,2013-04-22 07:27:00,
2013-04-22 03:32:00,39.8,33.8,30.55,East,86,3.0,6.0,79,0.00,,,0.00,Wunderground v.1.15,2013-04-22 07:32:00,
2013-04-22 03:37:00,39.7,33.7,30.55,East,86,0.0,6.0,79,0.00,,,0.00,Wunderground v.1.15,2013-04-22 07:37:00,
2013-04-22 03:42:00,39.6,33.9,30.55,East,86,0.0,4.0,80,0.00,,,0.00,Wunderground v.1.15,2013-04-22 07:42:00,
2013-04-22 03:47:00,39.6,33.9,30.55,East,80,4.0,10.0,80,0.00,,,0.00,Wunderground v.1.15,2013-04-22 07:47:00,
2013-04-22 03:52:00,39.6,33.9,30.55,East,80,1.0,3.0,80,0.00,,,0.00,Wunderground v.1.15,2013-04-22 07:52:00,
2013-04-22 03:57:00,39.6,33.9,30.55,East,80,0.0,6.0,80,0.00,,,0.00,Wunderground v.1.15,2013-04-22 07:57:00,
2013-04-22 04:02:00,39.5,33.8,30.55,East,80,0.0,6.0,80,0.00,,,0.00,Wunderground v.1.15,2013-04-22 08:02:00,
2013-04-22 04:07:00,39.3,33.6,30.55,East,80,1.0,6.0,80,0.00,,,0.00,Wunderground v.1.15,2013-04-22 08:07:00,
2013-04-22 04:12:00,39.3,33.6,30.55,East,80,1.0,4.0,80,0.00,,,0.00,Wunderground v.1.15,2013-04-22 08:12:00,
2013-04-22 04:17:00,39.2,33.9,30.55,East,80,1.0,4.0,81,0.00,,,0.00,Wunderground v.1.15,2013-04-22 08:17:00,
2013-04-22 04:22:00,39.0,33.7,30.54,East,80,1.0,5.0,81,0.00,,,0.00,Wunderground v.1.15,2013-04-22 08:22:00,
2013-04-22 04:27:00,39.0,33.7,30.54,East,80,5.0,5.0,81,0.00,,,0.00,Wunderground v.1.15,2013-04-22 08:27:00,
2013-04-22 04:32:00,39.1,33.8,30.54,East,80,4.0,6.0,81,0.00,,,0.00,Wunderground v.1.15,2013-04-22 08:32:00,
2013-04-22 04:38:00,39.2,33.9,30.54,East,80,1.0,6.0,81,0.00,,,0.00,Wunderground v.1.15,2013-04-22 08:38:00,
2013-04-22 04:43:00,39.3,34.3,30.54,East,80,3.0,4.0,82,0.00,,,0.00,Wunderground v.1.15,2013-04-22 08:43:00,
2013-04-22 04:48:00,39.2,34.2,30.54,East,80,2.0,5.0,82,0.00,,,0.00,Wunderground v.1.15,2013-04-22 08:48:00,
2013-04-22 04:53:00,39.2,33.9,30.54,ENE,71,3.0,7.0,81,0.00,,,0.00,Wunderground v.1.15,2013-04-22 08:53:00,
2013-04-22 04:58:00,39.4,32.8,30.54,ENE,76,3.0,7.0,77,0.00,,,0.00,Wunderground v.1.15,2013-04-22 08:58:00,
2013-04-22 05:03:00,39.7,33.1,30.54,East,81,3.0,3.0,77,0.00,,,0.00,Wunderground v.1.15,2013-04-22 09:03:00,
2013-04-22 05:08:00,39.8,33.2,30.54,East,82,5.0,7.0,77,0.00,,,0.00,Wunderground v.1.15,2013-04-22 09:08:00,
2013-04-22 05:13:00,39.8,32.8,30.54,East,82,2.0,6.0,76,0.00,,,0.00,Wunderground v.1.15,2013-04-22 09:13:00,
2013-04-22 05:18:00,39.8,32.8,30.54,East,82,0.0,6.0,76,0.00,,,0.00,Wunderground v.1.15,2013-04-22 09:18:00,
2013-04-22 05:23:00,39.8,32.8,30.54,East,82,3.0,3.0,76,0.00,,,0.00,Wunderground v.1.15,2013-04-22 09:23:00,
2013-04-22 05:28:00,39.6,32.7,30.54,East,83,1.0,6.0,76,0.00,,,0.00,Wunderground v.1.15,2013-04-22 09:28:00,
2013-04-22 05:33:00,39.5,32.6,30.54,East,83,0.0,3.0,76,0.00,,,0.00,Wunderground v.1.15,2013-04-22 09:33:00,
2013-04-22 05:38:00,39.2,31.9,30.54,East,84,1.0,6.0,75,0.00,,,0.00,Wunderground v.1.15,2013-04-22 09:38:00,
2013-04-22 05:43:00,39.2,31.9,30.54,East,84,0.0,3.0,75,0.00,,,0.00,Wunderground v.1.15,2013-04-22 09:43:00,
2013-04-22 05:48:00,39.0,32.7,30.54,East,84,2.0,3.0,78,0.00,,,0.00,Wunderground v.1.15,2013-04-22 09:48:00,
2013-04-22 05:53:00,38.3,32.4,30.54,East,84,0.0,2.0,79,0.00,,,0.00,Wunderground v.1.15,2013-04-22 09:53:00,
2013-04-22 05:58:00,37.7,32.1,30.54,East,84,0.0,2.0,80,0.00,,,0.00,Wunderground v.1.15,2013-04-22 09:58:00,
2013-04-22 06:03:00,37.3,32.0,30.54,East,84,0.0,3.0,81,0.00,,,0.00,Wunderground v.1.15,2013-04-22 10:03:00,
2013-04-22 06:08:00,37.0,31.7,30.54,East,84,0.0,3.0,81,0.00,,,0.00,Wunderground v.1.15,2013-04-22 10:08:00,
2013-04-22 06:14:00,37.1,31.8,30.54,East,84,1.0,4.0,81,0.00,,,0.00,Wunderground v.1.15,2013-04-22 10:14:00,
2013-04-22 06:18:00,37.3,31.7,30.54,East,84,0.0,4.0,80,0.00,,,0.00,Wunderground v.1.15,2013-04-22 10:18:00,
2013-04-22 06:23:00,37.4,31.8,30.54,East,84,0.0,2.0,80,0.00,,,0.00,Wunderground v.1.15,2013-04-22 10:23:00,
2013-04-22 06:29:00,37.5,31.6,30.54,East,84,0.0,2.0,79,0.00,,,0.00,Wunderground v.1.15,2013-04-22 10:29:00,
2013-04-22 06:34:00,37.6,31.4,30.54,East,84,0.0,6.0,78,0.00,,,0.00,Wunderground v.1.15,2013-04-22 10:34:00,
2013-04-22 06:39:00,37.8,31.6,30.55,East,83,5.0,6.0,78,0.00,,,0.00,Wunderground v.1.15,2013-04-22 10:39:00,
2013-04-22 06:44:00,38.0,32.1,30.55,East,82,0.0,5.0,79,0.00,,,0.00,Wunderground v.1.15,2013-04-22 10:44:00,
2013-04-22 06:49:00,38.3,32.4,30.54,East,82,2.0,5.0,79,0.00,,,0.00,Wunderground v.1.15,2013-04-22 10:49:00,
2013-04-22 06:54:00,38.4,31.8,30.54,East,79,1.0,9.0,77,0.00,,,0.00,Wunderground v.1.15,2013-04-22 10:54:00,
2013-04-22 06:59:00,38.6,31.7,30.55,East,79,0.0,9.0,76,0.00,,,0.00,Wunderground v.1.15,2013-04-22 10:59:00,
2013-04-22 07:04:00,38.8,31.6,30.55,East,80,2.0,5.0,75,0.00,,,0.00,Wunderground v.1.15,2013-04-22 11:04:00,
2013-04-22 07:09:00,38.9,32.0,30.55,East,80,0.0,5.0,76,0.00,,,0.00,Wunderground v.1.15,2013-04-22 11:09:00,
2013-04-22 07:14:00,38.9,32.0,30.55,East,80,5.0,6.0,76,0.00,,,0.00,Wunderground v.1.15,2013-04-22 11:14:00,
2013-04-22 07:19:00,39.2,31.9,30.55,ENE,76,2.0,9.0,75,0.00,,,0.00,Wunderground v.1.15,2013-04-22 11:19:00,
2013-04-22 07:24:00,39.6,32.0,30.55,ENE,75,1.0,6.0,74,0.00,,,0.00,Wunderground v.1.15,2013-04-22 11:24:00,
2013-04-22 07:29:00,40.0,32.7,30.55,ENE,76,1.0,6.0,75,0.00,,,0.00,Wunderground v.1.15,2013-04-22 11:29:00,
2013-04-22 07:34:00,40.2,32.9,30.55,East,84,0.0,11.0,75,0.00,,,0.00,Wunderground v.1.15,2013-04-22 11:34:00,
2013-04-22 07:39:00,40.4,33.4,30.56,ENE,74,4.0,11.0,76,0.00,,,0.00,Wunderground v.1.15,2013-04-22 11:39:00,
2013-04-22 07:44:00,40.5,33.5,30.56,ENE,59,1.0,12.0,76,0.00,,,0.00,Wunderground v.1.15,2013-04-22 11:44:00,
2013-04-22 07:49:00,40.6,33.6,30.56,ENE,61,3.0,12.0,76,0.00,,,0.00,Wunderground v.1.15,2013-04-22 11:49:00,
2013-04-22 07:54:00,40.6,33.3,30.56,ENE,61,4.0,14.0,75,0.00,,,0.00,Wunderground v.1.15,2013-04-22 11:54:00,
2013-04-22 07:59:00,40.6,33.3,30.56,NE,48,3.0,14.0,75,0.00,,,0.00,Wunderground v.1.15,2013-04-22 11:59:00,
2013-04-22 08:04:00,40.8,33.5,30.56,ENE,72,4.0,11.0,75,0.00,,,0.00,Wunderground v.1.15,2013-04-22 12:04:00,
2013-04-22 08:09:00,41.1,33.1,30.56,NE,40,3.0,16.0,73,0.00,,,0.00,Wunderground v.1.15,2013-04-22 12:09:00,
2013-04-22 08:14:00,41.4,33.4,30.56,East,84,4.0,11.0,73,0.00,,,0.00,Wunderground v.1.15,2013-04-22 12:14:00,
2013-04-22 08:19:00,41.5,33.8,30.56,ENE,69,1.0,11.0,74,0.00,,,0.00,Wunderground v.1.15,2013-04-22 12:19:00,
2013-04-22 08:24:00,41.6,33.6,30.57,ENE,76,3.0,11.0,73,0.00,,,0.00,Wunderground v.1.15,2013-04-22 12:24:00,
2013-04-22 08:29:00,41.5,33.5,30.56,East,96,6.0,11.0,73,0.00,,,0.00,Wunderground v.1.15,2013-04-22 12:29:00,
2013-04-22 08:34:00,41.5,33.5,30.57,ENE,78,7.0,10.0,73,0.00,,,0.00,Wunderground v.1.15,2013-04-22 12:34:00,
2013-04-22 08:39:00,41.7,34.0,30.56,NE,51,2.0,10.0,74,0.00,,,0.00,Wunderground v.1.15,2013-04-22 12:39:00,
2013-04-22 08:44:00,42.4,34.4,30.56,East,80,2.0,12.0,73,0.00,,,0.00,Wunderground v.1.15,2013-04-22 12:44:00,
2013-04-22 08:50:00,42.6,33.9,30.56,North,11,16.0,16.0,71,0.00,,,0.00,Wunderground v.1.15,2013-04-22 12:50:00,
2013-04-22 08:55:00,42.8,34.0,30.56,NE,43,3.0,16.0,71,0.00,,,0.00,Wunderground v.1.15,2013-04-22 12:55:00,
2013-04-22 09:00:00,43.1,34.7,30.56,East,90,4.0,5.0,72,0.00,,,0.00,Wunderground v.1.15,2013-04-22 13:00:00,
2013-04-22 09:05:00,43.4,34.6,30.56,East,89,3.0,17.0,71,0.00,,,0.00,Wunderground v.1.15,2013-04-22 13:05:00,
2013-04-22 09:10:00,44.0,35.6,30.56,East,86,4.0,4.0,72,0.00,,,0.00,Wunderground v.1.15,2013-04-22 13:10:00,
2013-04-22 09:15:00,44.2,35.4,30.56,East,96,4.0,7.0,71,0.00,,,0.00,Wunderground v.1.15,2013-04-22 13:15:00,
2013-04-22 09:20:00,44.5,35.7,30.56,ENE,76,8.0,10.0,71,0.00,,,0.00,Wunderground v.1.15,2013-04-22 13:20:00,
2013-04-22 09:25:00,44.3,35.1,30.56,East,101,0.0,11.0,70,0.00,,,0.00,Wunderground v.1.15,2013-04-22 13:25:00,
2013-04-22 09:30:00,44.6,35.8,30.56,East,98,1.0,4.0,71,0.00,,,0.00,Wunderground v.1.15,2013-04-22 13:30:00,
2013-04-22 09:35:00,45.2,36.4,30.57,East,98,3.0,7.0,71,0.00,,,0.00,Wunderground v.1.15,2013-04-22 13:35:00,
2013-04-22 09:40:00,45.0,36.5,30.56,SE,124,4.0,4.0,72,0.00,,,0.00,Wunderground v.1.15,2013-04-22 13:40:00,
2013-04-22 09:45:00,45.3,36.4,30.56,SE,138,4.0,10.0,71,0.00,,,0.00,Wunderground v.1.15,2013-04-22 13:45:00,
2013-04-22 09:50:00,45.8,36.6,30.56,East,83,1.0,4.0,70,0.00,,,0.00,Wunderground v.1.15,2013-04-22 13:50:00,
2013-04-22 09:55:00,45.8,36.6,30.55,East,98,4.0,12.0,70,0.00,,,0.00,Wunderground v.1.15,2013-04-22 13:55:00,
2013-04-22 10:00:00,46.0,36.4,30.56,ENE,75,11.0,11.0,69,0.00,,,0.00,Wunderground v.1.15,2013-04-22 14:00:00,
2013-04-22 10:05:00,46.1,36.9,30.56,NNE,28,10.0,12.0,70,0.00,,,0.00,Wunderground v.1.15,2013-04-22 14:05:00,
2013-04-22 10:10:00,46.7,36.7,30.55,East,88,5.0,11.0,68,0.00,,,0.00,Wunderground v.1.15,2013-04-22 14:10:00,
2013-04-22 10:15:00,46.8,36.8,30.55,ESE,119,2.0,14.0,68,0.00,,,0.00,Wunderground v.1.15,2013-04-22 14:15:00,
2013-04-22 10:20:00,46.9,36.1,30.55,ESE,106,6.0,9.0,66,0.00,,,0.00,Wunderground v.1.15,2013-04-22 14:20:00,
2013-04-22 10:25:00,47.4,36.2,30.56,ESE,116,6.0,10.0,65,0.00,,,0.00,Wunderground v.1.15,2013-04-22 14:25:00,
2013-04-22 10:30:00,47.5,35.5,30.55,NE,51,4.0,5.0,63,0.00,,,0.00,Wunderground v.1.15,2013-04-22 14:30:00,
2013-04-22 10:35:00,47.5,35.9,30.55,SE,131,3.0,11.0,64,0.00,,,0.00,Wunderground v.1.15,2013-04-22 14:35:00,
2013-04-22 10:40:00,47.6,36.8,30.55,ESE,107,4.0,5.0,66,0.00,,,0.00,Wunderground v.1.15,2013-04-22 14:40:00,
2013-04-22 10:45:00,48.0,36.4,30.55,ESE,118,4.0,13.0,64,0.00,,,0.00,Wunderground v.1.15,2013-04-22 14:45:00,
2013-04-22 10:50:00,48.3,36.3,30.55,SE,134,0.0,10.0,63,0.00,,,0.00,Wunderground v.1.15,2013-04-22 14:50:00,
2013-04-22 10:55:00,48.5,36.1,30.55,ENE,75,4.0,12.0,62,0.00,,,0.00,Wunderground v.1.15,2013-04-22 14:55:00,
2013-04-22 11:00:00,48.4,36.0,30.55,East,82,3.0,7.0,62,0.00,,,0.00,Wunderground v.1.15,2013-04-22 15:00:00,
2013-04-22 11:05:00,49.1,37.4,30.55,NE,36,2.0,12.0,64,0.00,,,0.00,Wunderground v.1.15,2013-04-22 15:05:00,
2013-04-22 11:10:00,49.2,36.7,30.54,NE,46,2.0,6.0,62,0.00,,,0.00,Wunderground v.1.15,2013-04-22 15:10:00,
2013-04-22 11:15:00,49.2,36.7,30.54,NNE,28,2.0,12.0,62,0.00,,,0.00,Wunderground v.1.15,2013-04-22 15:15:00,
2013-04-22 11:20:00,49.5,37.4,30.54,ENE,75,7.0,10.0,63,0.00,,,0.00,Wunderground v.1.15,2013-04-22 15:20:00,
2013-04-22 11:25:00,49.9,37.0,30.54,ESE,119,3.0,10.0,61,0.00,,,0.00,Wunderground v.1.15,2013-04-22 15:25:00,
2013-04-22 11:30:00,50.1,37.6,30.54,ESE,119,2.0,5.0,62,0.00,,,0.00,Wunderground v.1.15,2013-04-22 15:30:00,
2013-04-22 11:35:00,50.4,37.4,30.54,ESE,122,4.0,9.0,61,0.00,,,0.00,Wunderground v.1.15,2013-04-22 15:35:00,
2013-04-22 11:40:00,50.6,38.5,30.53,ESE,115,4.0,6.0,63,0.00,,,0.00,Wunderground v.1.15,2013-04-22 15:40:00,
2013-04-22 11:45:00,50.9,37.1,30.53,NE,50,1.0,15.0,59,0.00,,,0.00,Wunderground v.1.15,2013-04-22 15:45:00,
2013-04-22 11:50:00,51.2,39.0,30.53,ESE,114,6.0,9.0,63,0.00,,,0.00,Wunderground v.1.15,2013-04-22 15:50:00,
2013-04-22 11:55:00,51.0,38.8,30.52,SE,124,6.0,13.0,63,0.00,,,0.00,Wunderground v.1.15,2013-04-22 15:55:00,
2013-04-22 12:00:00,51.1,38.1,30.52,SE,125,3.0,5.0,61,0.00,,,0.00,Wunderground v.1.15,2013-04-22 16:00:00,
2013-04-22 12:05:00,51.5,39.7,30.52,ESE,103,4.0,9.0,64,0.00,,,0.00,Wunderground v.1.15,2013-04-22 16:05:00,
2013-04-22 12:10:00,52.1,39.5,30.52,NNE,26,2.0,11.0,62,0.00,,,0.00,Wunderground v.1.15,2013-04-22 16:10:00,
2013-04-22 12:15:00,52.4,39.8,30.52,ENE,62,0.0,11.0,62,0.00,,,0.00,Wunderground v.1.15,2013-04-22 16:15:00,
2013-04-22 12:20:00,52.9,39.8,30.52,East,87,4.0,6.0,61,0.00,,,0.00,Wunderground v.1.15,2013-04-22 16:20:00,
2013-04-22 12:25:00,53.1,38.3,30.51,ESE,115,1.0,7.0,57,0.00,,,0.00,Wunderground v.1.15,2013-04-22 16:25:00,
2013-04-22 12:31:00,53.5,39.5,30.51,ESE,106,0.0,5.0,59,0.00,,,0.00,Wunderground v.1.15,2013-04-22 16:31:00,
2013-04-22 12:35:00,53.6,41.7,30.51,SE,144,6.0,7.0,64,0.00,,,0.00,Wunderground v.1.15,2013-04-22 16:35:00,
2013-04-22 12:41:00,53.8,39.4,30.51,SE,127,3.0,5.0,58,0.00,,,0.00,Wunderground v.1.15,2013-04-22 16:41:00,
2013-04-22 12:46:00,54.1,40.5,30.51,NE,53,5.0,11.0,60,0.00,,,0.00,Wunderground v.1.15,2013-04-22 16:46:00,
2013-04-22 12:51:00,54.4,39.0,30.51,NE,55,3.0,8.0,56,0.00,,,0.00,Wunderground v.1.15,2013-04-22 16:51:00,
2013-04-22 12:56:00,53.6,38.3,30.51,ENE,63,0.0,8.0,56,0.00,,,0.00,Wunderground v.1.15,2013-04-22 16:56:00,
2013-04-22 13:01:00,53.6,41.7,30.50,ENE,61,1.0,2.0,64,0.00,,,0.00,Wunderground v.1.15,2013-04-22 17:01:00,
2013-04-22 13:06:00,54.1,40.5,30.50,ENE,61,0.0,4.0,60,0.00,,,0.00,Wunderground v.1.15,2013-04-22 17:06:00,
2013-04-22 13:11:00,55.0,41.8,30.49,NE,34,0.0,7.0,61,0.00,,,0.00,Wunderground v.1.15,2013-04-22 17:11:00,
2013-04-22 13:16:00,55.2,39.3,30.49,ENE,57,9.0,10.0,55,0.00,,,0.00,Wunderground v.1.15,2013-04-22 17:16:00,
2013-04-22 13:21:00,54.4,39.5,30.49,NNE,26,3.0,4.0,57,0.00,,,0.00,Wunderground v.1.15,2013-04-22 17:21:00,
2013-04-22 13:26:00,53.8,38.9,30.49,SE,128,3.0,11.0,57,0.00,,,0.00,Wunderground v.1.15,2013-04-22 17:26:00,
2013-04-22 13:31:00,53.1,38.3,30.48,SE,133,2.0,6.0,57,0.00,,,0.00,Wunderground v.1.15,2013-04-22 17:31:00,
2013-04-22 13:36:00,53.3,39.8,30.48,East,96,5.0,10.0,60,0.00,,,0.00,Wunderground v.1.15,2013-04-22 17:36:00,
2013-04-22 13:42:00,53.7,41.0,30.48,ESE,113,2.0,10.0,62,0.00,,,0.00,Wunderground v.1.15,2013-04-22 17:42:00,
2013-04-22 13:47:00,53.8,39.4,30.47,SE,127,3.0,10.0,58,0.00,,,0.00,Wunderground v.1.15,2013-04-22 17:47:00,
2013-04-22 13:52:00,54.2,39.3,30.48,ESE,102,9.0,9.0,57,0.00,,,0.00,Wunderground v.1.15,2013-04-22 17:52:00,
2013-04-22 13:57:00,54.1,39.2,30.47,East,97,1.0,9.0,57,0.00,,,0.00,Wunderground v.1.15,2013-04-22 17:57:00,
2013-04-22 14:02:00,54.5,40.9,30.47,East,96,3.0,6.0,60,0.00,,,0.00,Wunderground v.1.15,2013-04-22 18:02:00,
2013-04-22 14:07:00,55.1,39.2,30.47,ESE,109,7.0,16.0,55,0.00,,,0.00,Wunderground v.1.15,2013-04-22 18:07:00,
2013-04-22 14:12:00,55.1,39.7,30.46,SE,126,4.0,11.0,56,0.00,,,0.00,Wunderground v.1.15,2013-04-22 18:12:00,
2013-04-22 14:17:00,55.1,39.7,30.46,SSE,148,3.0,11.0,56,0.00,,,0.00,Wunderground v.1.15,2013-04-22 18:17:00,
2013-04-22 14:22:00,55.1,40.6,30.46,SE,132,3.0,7.0,58,0.00,,,0.00,Wunderground v.1.15,2013-04-22 18:22:00,
2013-04-22 14:27:00,55.3,39.9,30.46,ESE,119,7.0,11.0,56,0.00,,,0.00,Wunderground v.1.15,2013-04-22 18:27:00,
2013-04-22 14:32:00,55.1,39.7,30.46,ENE,61,5.0,10.0,56,0.00,,,0.00,Wunderground v.1.15,2013-04-22 18:32:00,
2013-04-22 14:37:00,55.2,40.2,30.46,SE,144,7.0,11.0,57,0.00,,,0.00,Wunderground v.1.15,2013-04-22 18:37:00,
2013-04-22 14:42:00,55.1,40.1,30.45,SE,124,4.0,6.0,57,0.00,,,0.00,Wunderground v.1.15,2013-04-22 18:42:00,
2013-04-22 14:47:00,55.7,40.2,30.45,ESE,115,1.0,10.0,56,0.00,,,0.00,Wunderground v.1.15,2013-04-22 18:47:00,
2013-04-22 14:52:00,56.2,40.7,30.45,ESE,122,6.0,11.0,56,0.00,,,0.00,Wunderground v.1.15,2013-04-22 18:52:00,
2013-04-22 14:57:00,56.1,39.2,30.45,ENE,70,3.0,15.0,53,0.00,,,0.00,Wunderground v.1.15,2013-04-22 18:57:00,
2013-04-22 15:02:00,56.0,40.5,30.44,ESE,109,6.0,10.0,56,0.00,,,0.00,Wunderground v.1.15,2013-04-22 19:02:00,
2013-04-22 15:07:00,55.7,39.8,30.44,SE,127,5.0,10.0,55,0.00,,,0.00,Wunderground v.1.15,2013-04-22 19:07:00,
2013-04-22 15:12:00,56.3,42.1,30.44,ESE,105,3.0,6.0,59,0.00,,,0.00,Wunderground v.1.15,2013-04-22 19:12:00,
2013-04-22 15:17:00,56.4,39.0,30.44,SSE,155,6.0,12.0,52,0.00,,,0.00,Wunderground v.1.15,2013-04-22 19:17:00,
2013-04-22 15:22:00,56.2,42.1,30.44,SE,136,2.0,11.0,59,0.00,,,0.00,Wunderground v.1.15,2013-04-22 19:22:00,
2013-04-22 15:27:00,56.8,40.3,30.43,SE,135,1.0,11.0,54,0.00,,,0.00,Wunderground v.1.15,2013-04-22 19:27:00,
2013-04-22 15:32:00,57.3,43.1,30.43,SE,136,6.0,10.0,59,0.00,,,0.00,Wunderground v.1.15,2013-04-22 19:32:00,
2013-04-22 15:37:00,57.2,41.2,30.43,NE,40,3.0,14.0,55,0.00,,,0.00,Wunderground v.1.15,2013-04-22 19:37:00,
2013-04-22 15:42:00,56.9,39.9,30.43,ENE,74,2.0,9.0,53,0.00,,,0.00,Wunderground v.1.15,2013-04-22 19:42:00,
2013-04-22 15:47:00,56.5,39.1,30.42,ENE,74,5.0,14.0,52,0.00,,,0.00,Wunderground v.1.15,2013-04-22 19:47:00,
2013-04-22 15:52:00,56.1,40.1,30.42,ENE,64,1.0,6.0,55,0.00,,,0.00,Wunderground v.1.15,2013-04-22 19:52:00,
2013-04-22 15:57:00,56.0,39.6,30.42,ENE,78,1.0,9.0,54,0.00,,,0.00,Wunderground v.1.15,2013-04-22 19:57:00,
2013-04-22 16:02:00,55.6,39.7,30.42,ESE,123,5.0,8.0,55,0.00,,,0.00,Wunderground v.1.15,2013-04-22 20:02:00,
2013-04-22 16:07:00,55.9,40.9,30.42,NE,51,4.0,11.0,57,0.00,,,0.00,Wunderground v.1.15,2013-04-22 20:07:00,
2013-04-22 16:13:00,56.2,39.3,30.41,ESE,115,2.0,7.0,53,0.00,,,0.00,Wunderground v.1.15,2013-04-22 20:13:00,
2013-04-22 16:18:00,56.4,39.5,30.41,SE,130,3.0,7.0,53,0.00,,,0.00,Wunderground v.1.15,2013-04-22 20:18:00,
2013-04-22 16:23:00,56.4,39.0,30.41,East,96,6.0,7.0,52,0.00,,,0.00,Wunderground v.1.15,2013-04-22 20:23:00,
2013-04-22 16:28:00,56.2,39.8,30.41,ENE,77,5.0,10.0,54,0.00,,,0.00,Wunderground v.1.15,2013-04-22 20:28:00,
2013-04-22 16:33:00,56.0,39.6,30.40,ENE,73,3.0,6.0,54,0.00,,,0.00,Wunderground v.1.15,2013-04-22 20:33:00,
2013-04-22 16:38:00,56.4,40.0,30.40,ENE,70,0.0,6.0,54,0.00,,,0.00,Wunderground v.1.15,2013-04-22 20:38:00,
2013-04-22 16:43:00,56.6,40.6,30.41,ENE,71,2.0,9.0,55,0.00,,,0.00,Wunderground v.1.15,2013-04-22 20:43:00,
2013-04-22 16:49:00,56.7,41.2,30.40,ENE,72,2.0,9.0,56,0.00,,,0.00,Wunderground v.1.15,2013-04-22 20:49:00,
2013-04-22 16:54:00,56.7,39.7,30.40,East,86,5.0,9.0,53,0.00,,,0.00,Wunderground v.1.15,2013-04-22 20:54:00,
2013-04-22 16:59:00,56.6,40.1,30.40,East,86,4.0,9.0,54,0.00,,,0.00,Wunderground v.1.15,2013-04-22 20:59:00,
2013-04-22 17:04:00,56.4,41.3,30.40,ENE,78,4.0,7.0,57,0.00,,,0.00,Wunderground v.1.15,2013-04-22 21:04:00,
2013-04-22 17:09:00,56.4,40.0,30.40,NE,48,0.0,7.0,54,0.00,,,0.00,Wunderground v.1.15,2013-04-22 21:09:00,
2013-04-22 17:14:00,56.4,40.9,30.40,ESE,118,8.0,10.0,56,0.00,,,0.00,Wunderground v.1.15,2013-04-22 21:14:00,
2013-04-22 17:19:00,56.1,39.7,30.40,East,96,2.0,12.0,54,0.00,,,0.00,Wunderground v.1.15,2013-04-22 21:19:00,
2013-04-22 17:24:00,56.2,40.2,30.40,ENE,71,0.0,9.0,55,0.00,,,0.00,Wunderground v.1.15,2013-04-22 21:24:00,
2013-04-22 17:29:00,56.0,39.1,30.40,SSW,200,4.0,9.0,53,0.00,,,0.00,Wunderground v.1.15,2013-04-22 21:29:00,
2013-04-22 17:34:00,55.5,39.6,30.40,South,174,1.0,10.0,55,0.00,,,0.00,Wunderground v.1.15,2013-04-22 21:34:00,
2013-04-22 17:39:00,55.2,38.4,30.40,South,173,0.0,10.0,53,0.00,,,0.00,Wunderground v.1.15,2013-04-22 21:39:00,
2013-04-22 17:44:00,55.2,38.8,30.40,ENE,77,1.0,11.0,54,0.00,,,0.00,Wunderground v.1.15,2013-04-22 21:44:00,
2013-04-22 17:49:00,54.8,38.5,30.40,ENE,78,6.0,11.0,54,0.00,,,0.00,Wunderground v.1.15,2013-04-22 21:49:00,
2013-04-22 17:54:00,54.4,39.5,30.40,ESE,106,0.0,9.0,57,0.00,,,0.00,Wunderground v.1.15,2013-04-22 21:54:00,
2013-04-22 17:59:00,54.2,39.3,30.40,ENE,62,1.0,9.0,57,0.00,,,0.00,Wunderground v.1.15,2013-04-22 21:59:00,
2013-04-22 18:04:00,54.2,38.4,30.39,East,90,4.0,7.0,55,0.00,,,0.00,Wunderground v.1.15,2013-04-22 22:04:00,
2013-04-22 18:09:00,53.9,38.6,30.39,SE,132,3.0,9.0,56,0.00,,,0.00,Wunderground v.1.15,2013-04-22 22:09:00,
2013-04-22 18:14:00,53.8,38.0,30.39,SE,126,6.0,8.0,55,0.00,,,0.00,Wunderground v.1.15,2013-04-22 22:14:00,
2013-04-22 18:19:00,53.5,38.2,30.39,ESE,123,1.0,8.0,56,0.00,,,0.00,Wunderground v.1.15,2013-04-22 22:19:00,
2013-04-22 18:24:00,53.4,38.5,30.39,ESE,123,0.0,5.0,57,0.00,,,0.00,Wunderground v.1.15,2013-04-22 22:24:00,
2013-04-22 18:29:00,53.4,38.5,30.39,ESE,116,0.0,7.0,57,0.00,,,0.00,Wunderground v.1.15,2013-04-22 22:29:00,
2013-04-22 18:34:00,53.3,38.9,30.39,SE,138,10.0,12.0,58,0.00,,,0.00,Wunderground v.1.15,2013-04-22 22:34:00,
2013-04-22 18:39:00,53.1,38.3,30.39,SSE,155,2.0,12.0,57,0.00,,,0.00,Wunderground v.1.15,2013-04-22 22:39:00,
2013-04-22 18:44:00,53.0,38.2,30.39,SSE,155,0.0,3.0,57,0.00,,,0.00,Wunderground v.1.15,2013-04-22 22:44:00,
2013-04-22 18:49:00,52.8,38.9,30.39,SE,146,4.0,7.0,59,0.00,,,0.00,Wunderground v.1.15,2013-04-22 22:49:00,
2013-04-22 18:54:00,52.6,38.2,30.39,ESE,120,5.0,14.0,58,0.00,,,0.00,Wunderground v.1.15,2013-04-22 22:54:00,
2013-04-22 18:59:00,52.4,38.0,30.39,ESE,121,0.0,14.0,58,0.00,,,0.00,Wunderground v.1.15,2013-04-22 22:59:00,
2013-04-22 19:04:00,52.2,38.3,30.39,SE,134,3.0,11.0,59,0.00,,,0.00,Wunderground v.1.15,2013-04-22 23:04:00,
2013-04-22 19:10:00,52.0,38.1,30.39,SE,142,5.0,5.0,59,0.00,,,0.00,Wunderground v.1.15,2013-04-22 23:10:00,
2013-04-22 19:15:00,51.7,37.8,30.39,SE,131,6.0,9.0,59,0.00,,,0.00,Wunderground v.1.15,2013-04-22 23:15:00,
2013-04-22 19:20:00,51.5,37.6,30.39,SE,133,0.0,4.0,59,0.00,,,0.00,Wunderground v.1.15,2013-04-22 23:20:00,
2013-04-22 19:25:00,51.4,38.0,30.39,SE,135,7.0,7.0,60,0.00,,,0.00,Wunderground v.1.15,2013-04-22 23:25:00,
2013-04-22 19:30:00,51.2,37.8,30.39,SE,134,2.0,4.0,60,0.00,,,0.00,Wunderground v.1.15,2013-04-22 23:30:00,
2013-04-22 19:35:00,50.9,37.5,30.39,SE,133,4.0,12.0,60,0.00,,,0.00,Wunderground v.1.15,2013-04-22 23:35:00,
2013-04-22 19:40:00,50.7,37.7,30.39,SE,138,8.0,8.0,61,0.00,,,0.00,Wunderground v.1.15,2013-04-22 23:40:00,
2013-04-22 19:45:00,50.4,37.4,30.40,SSE,147,1.0,11.0,61,0.00,,,0.00,Wunderground v.1.15,2013-04-22 23:45:00,
2013-04-22 19:50:00,50.2,38.1,30.40,SSE,147,3.0,4.0,63,0.00,,,0.00,Wunderground v.1.15,2013-04-22 23:50:00,
2013-04-22 19:55:00,49.8,38.1,30.40,SSE,148,3.0,7.0,64,0.00,,,0.00,Wunderground v.1.15,2013-04-22 23:55:00,
2013-04-22 20:00:00,49.5,37.8,30.40,SE,146,6.0,6.0,64,0.00,,,0.00,Wunderground v.1.15,2013-04-23 00:00:00,
2013-04-22 20:05:00,49.3,37.2,30.40,SE,142,3.0,7.0,63,0.00,,,0.00,Wunderground v.1.15,2013-04-23 00:05:00,
2013-04-22 20:10:00,49.1,37.0,30.40,SE,144,3.0,9.0,63,0.00,,,0.00,Wunderground v.1.15,2013-04-23 00:10:00,
2013-04-22 20:15:00,48.9,37.3,30.41,SSE,147,9.0,9.0,64,0.00,,,0.00,Wunderground v.1.15,2013-04-23 00:15:00,
2013-04-22 20:20:00,48.8,37.2,30.41,South,190,2.0,4.0,64,0.00,,,0.00,Wunderground v.1.15,2013-04-23 00:20:00,
2013-04-22 20:25:00,48.6,37.0,30.41,South,189,2.0,9.0,64,0.00,,,0.00,Wunderground v.1.15,2013-04-23 00:25:00,
2013-04-22 20:30:00,48.3,36.7,30.41,South,181,2.0,5.0,64,0.00,,,0.00,Wunderground v.1.15,2013-04-23 00:30:00,
2013-04-22 20:35:00,48.2,37.0,30.41,SSE,165,2.0,12.0,65,0.00,,,0.00,Wunderground v.1.15,2013-04-23 00:35:00,
2013-04-22 20:40:00,48.0,36.8,30.41,SSE,150,4.0,5.0,65,0.00,,,0.00,Wunderground v.1.15,2013-04-23 00:40:00,
2013-04-22 20:45:00,47.8,37.0,30.42,SE,134,0.0,10.0,66,0.00,,,0.00,Wunderground v.1.15,2013-04-23 00:45:00,
2013-04-22 20:50:00,47.6,36.8,30.41,SE,134,1.0,5.0,66,0.00,,,0.00,Wunderground v.1.15,2013-04-23 00:50:00,
2013-04-22 20:55:00,47.4,37.0,30.42,South,175,4.0,10.0,67,0.00,,,0.00,Wunderground v.1.15,2013-04-23 00:55:00,
2013-04-22 21:00:00,47.2,36.8,30.42,South,175,3.0,4.0,67,0.00,,,0.00,Wunderground v.1.15,2013-04-23 01:00:00,
2013-04-22 21:06:00,47.1,36.7,30.42,South,182,1.0,10.0,67,0.00,,,0.00,Wunderground v.1.15,2013-04-23 01:06:00,
2013-04-22 21:11:00,47.0,37.0,30.42,South,183,4.0,5.0,68,0.00,,,0.00,Wunderground v.1.15,2013-04-23 01:11:00,
2013-04-22 21:16:00,46.8,36.8,30.42,South,183,3.0,8.0,68,0.00,,,0.00,Wunderground v.1.15,2013-04-23 01:16:00,
2013-04-22 21:21:00,46.5,36.9,30.42,South,183,0.0,3.0,69,0.00,,,0.00,Wunderground v.1.15,2013-04-23 01:21:00,
2013-04-22 21:26:00,46.3,36.3,30.42,South,183,3.0,5.0,68,0.00,,,0.00,Wunderground v.1.15,2013-04-23 01:26:00,
2013-04-22 21:31:00,46.1,36.1,30.42,South,184,1.0,5.0,68,0.00,,,0.00,Wunderground v.1.15,2013-04-23 01:31:00,
2013-04-22 21:36:00,45.9,35.9,30.42,SSW,196,0.0,10.0,68,0.00,,,0.00,Wunderground v.1.15,2013-04-23 01:36:00,
2013-04-22 21:41:00,45.7,36.1,30.42,SSW,196,0.0,3.0,69,0.00,,,0.00,Wunderground v.1.15,2013-04-23 01:41:00,
2013-04-22 21:46:00,45.4,36.2,30.42,SSW,196,0.0,5.0,70,0.00,,,0.00,Wunderground v.1.15,2013-04-23 01:46:00,
2013-04-22 21:51:00,45.2,35.6,30.43,SSW,196,0.0,7.0,69,0.00,,,0.00,Wunderground v.1.15,2013-04-23 01:51:00,
2013-04-22 21:56:00,45.1,35.9,30.43,SSW,196,1.0,7.0,70,0.00,,,0.00,Wunderground v.1.15,2013-04-23 01:56:00,
2013-04-22 22:01:00,44.9,35.7,30.43,SSW,196,3.0,3.0,70,0.00,,,0.00,Wunderground v.1.15,2013-04-23 02:01:00,
2013-04-22 22:06:00,44.8,35.6,30.43,SSW,196,3.0,4.0,70,0.00,,,0.00,Wunderground v.1.15,2013-04-23 02:06:00,
2013-04-22 22:11:00,44.5,35.7,30.43,SSW,196,0.0,1.0,71,0.00,,,0.00,Wunderground v.1.15,2013-04-23 02:11:00,
2013-04-22 22:16:00,44.1,35.6,30.42,SSW,196,0.0,4.0,72,0.00,,,0.00,Wunderground v.1.15,2013-04-23 02:16:00,
2013-04-22 22:21:00,43.6,35.9,30.42,SSW,196,0.0,2.0,74,0.00,,,0.00,Wunderground v.1.15,2013-04-23 02:21:00,
2013-04-22 22:26:00,43.4,35.3,30.43,SSW,196,0.0,4.0,73,0.00,,,0.00,Wunderground v.1.15,2013-04-23 02:26:00,
2013-04-22 22:31:00,43.6,35.9,30.42,SSW,196,1.0,1.0,74,0.00,,,0.00,Wunderground v.1.15,2013-04-23 02:31:00,
2013-04-22 22:36:00,43.4,35.7,30.43,SSW,196,2.0,5.0,74,0.00,,,0.00,Wunderground v.1.15,2013-04-23 02:36:00,
2013-04-22 22:41:00,43.5,35.4,30.43,South,188,1.0,10.0,73,0.00,,,0.00,Wunderground v.1.15,2013-04-23 02:41:00,
2013-04-22 22:46:00,43.6,35.2,30.43,South,188,0.0,10.0,72,0.00,,,0.00,Wunderground v.1.15,2013-04-23 02:46:00,
2013-04-22 22:51:00,43.6,35.5,30.42,South,188,1.0,1.0,73,0.00,,,0.00,Wunderground v.1.15,2013-04-23 02:51:00,
2013-04-22 22:56:00,43.5,35.4,30.42,South,186,2.0,5.0,73,0.00,,,0.00,Wunderground v.1.15,2013-04-23 02:56:00,
2013-04-22 23:01:00,43.4,35.3,30.42,South,181,3.0,4.0,73,0.00,,,0.00,Wunderground v.1.15,2013-04-23 03:01:00,
2013-04-22 23:06:00,43.4,35.3,30.42,South,181,1.0,4.0,73,0.00,,,0.00,Wunderground v.1.15,2013-04-23 03:06:00,
2013-04-22 23:11:00,43.3,35.6,30.42,South,181,0.0,2.0,74,0.00,,,0.00,Wunderground v.1.15,2013-04-23 03:11:00,
2013-04-22 23:16:00,43.1,35.4,30.42,NE,48,1.0,10.0,74,0.00,,,0.00,Wunderground v.1.15,2013-04-23 03:16:00,
2013-04-22 23:21:00,42.9,35.2,30.42,NE,47,0.0,3.0,74,0.00,,,0.00,Wunderground v.1.15,2013-04-23 03:21:00,
2013-04-22 23:26:00,42.8,35.1,30.42,NE,47,2.0,4.0,74,0.00,,,0.00,Wunderground v.1.15,2013-04-23 03:26:00,
2013-04-22 23:31:00,42.5,35.1,30.42,NE,47,0.0,6.0,75,0.00,,,0.00,Wunderground v.1.15,2013-04-23 03:31:00,
2013-04-22 23:36:00,42.1,35.1,30.42,NE,47,0.0,6.0,76,0.00,,,0.00,Wunderground v.1.15,2013-04-23 03:36:00,
2013-04-22 23:41:00,41.9,34.9,30.42,NE,47,1.0,2.0,76,0.00,,,0.00,Wunderground v.1.15,2013-04-23 03:41:00,
2013-04-22 23:46:00,41.7,35.0,30.42,NE,47,4.0,4.0,77,0.00,,,0.00,Wunderground v.1.15,2013-04-23 03:46:00,
2013-04-22 23:51:00,41.5,34.8,30.42,NE,47,5.0,5.0,77,0.00,,,0.00,Wunderground v.1.15,2013-04-23 03:51:00,
2013-04-22 23:56:00,41.5,34.8,30.42,NE,48,2.0,5.0,77,0.00,,,0.00,Wunderground v.1.15,2013-04-23 03:56:00,